Latest Weather Observations for Goulburn Airport

IDN60901

Issued at 10:31 am EST Thursday 21 June 2018 (issued every 10 minutes, with the page automatically refreshed every 10 minutes)

About weather observations | Map of Canberra area stations | Latest observations for Canberra area | Other Formats
Station Details ID: 070330 Name: GOULBURN AIRPORT AWS Lat: -34.81 Lon: 149.73 Height: 640.0 m
Data from the previous 72 hours. | See also: Recent months at Goulburn Airport
Date/Time
EST
Temp
°C
App
Temp
°C
Dew
Point
°C
Rel
Hum
%
Delta-T
°C
Wind Press
QNH
hPa
Press
MSL
hPa
Rain since
9am
mm
Dir  Spd
km/h
Gust
km/h
Spd
kts
Gust
kts
21/10:30am 4.3 2.3 4.2 99 0.0 NW 4 7 2 4 1029.2 1030.2 0.0
21/10:00am 2.9 0.2 2.8 99 0.0 NNW 6 7 3 4 1029.3 1030.3 0.0
21/09:30am 1.7 -0.4 1.6 99 0.0 N 2 7 1 4 1029.4 1030.4 0.0
21/09:00am 1.0 -1.6 0.9 99 0.0 SW 4 7 2 4 1029.4 1030.4 0.0
21/08:30am 0.3 -1.7 0.2 99 0.0 CALM 0 0 0 0 1029.3 1030.3 0.0
21/08:00am -0.2 -2.2 -0.3 99 0.0 CALM 0 0 0 0 1029.2 1030.2 0.0
21/07:30am -0.6 -2.7 -0.7 99 0.0 CALM 0 0 0 0 1028.9 1029.9 0.0
21/07:00am -0.7 -2.8 -1.0 98 0.1 CALM 0 0 0 0 1028.6 1029.5 0.0
21/06:30am -0.9 -3.0 -1.0 99 0.0 CALM 0 0 0 0 1028.4 1029.3 0.0
21/06:00am -1.1 -3.3 -1.2 99 0.0 CALM 0 0 0 0 1028.0 1029.0 0.0
21/05:30am -1.1 -3.3 -1.2 99 0.0 CALM 0 0 0 0 1027.7 1028.7 0.0
21/05:00am -1.3 -3.5 -1.4 99 0.0 CALM 0 0 0 0 1027.5 1028.5 0.0
21/04:30am -1.5 -3.7 -1.6 99 0.0 CALM 0 0 0 0 1027.4 1028.4 0.0
21/04:00am -1.4 -3.6 -1.5 99 0.0 CALM 0 0 0 0 1027.4 1028.4 0.0
21/03:30am -1.5 -3.7 -1.6 99 0.0 CALM 0 0 0 0 1027.3 1028.3 0.0
21/03:00am -1.6 -3.8 -1.7 99 0.0 CALM 0 0 0 0 1027.3 1028.3 0.0
21/02:30am -2.1 -4.4 -2.4 98 0.0 CALM 0 0 0 0 1027.4 1028.4 0.0
21/02:00am -2.0 -4.3 -2.3 98 0.0 CALM 0 0 0 0 1027.4 1028.4 0.0
21/01:30am -1.5 -3.7 -1.8 98 0.0 CALM 0 0 0 0 1027.6 1028.6 0.0
21/01:16am -1.5 -3.7 -1.8 98 0.0 CALM 0 0 0 0 1027.6 1028.6 0.0
21/01:00am -1.4 -3.6 -1.8 97 0.1 CALM 0 0 0 0 1027.7 1028.7 0.0
21/12:30am -0.8 -2.9 -1.1 98 0.1 CALM 0 0 0 0 1027.8 1028.8 0.0
21/12:16am -1.1 -3.3 -1.7 96 0.2 CALM 0 0 0 0 1027.8 1028.8 0.0
21/12:00am -0.1 -2.2 -0.5 97 0.1 CALM 0 0 0 0 1028.0 1029.0 0.0
 
Date/Time
EST
Temp
°C
App
Temp
°C
Dew
Point
°C
Rel
Hum
%
Delta-T
°C
Wind Press
QNH
hPa
Press
MSL
hPa
Rain since
9am
mm
Dir  Spd
km/h
Gust
km/h
Spd
kts
Gust
kts
20/11:30pm 0.8 -1.1 0.4 97 0.2 CALM 0 0 0 0 1028.0 1029.0 0.0
20/11:00pm 0.7 -2.4 0.3 97 0.2 SSW 6 7 3 4 1028.0 1029.0 0.0
20/10:30pm 0.4 -3.0 -0.3 95 0.3 WSW 7 11 4 6 1028.1 1029.1 0.0
20/10:00pm 1.6 -1.6 1.0 96 0.2 ESE 7 7 4 4 1028.1 1029.1 0.0
20/09:30pm 1.4 -1.6 0.5 94 0.3 SW 6 7 3 4 1028.4 1029.3 0.0
20/09:00pm 2.4 0.6 0.9 90 0.6 CALM 0 0 0 0 1028.5 1029.4 0.0
20/08:30pm 3.6 1.9 2.0 89 0.7 CALM 0 0 0 0 1028.5 1029.4 0.0
20/08:00pm 5.0 3.1 2.7 85 1.0 SE 2 6 1 3 1028.5 1029.4 0.0
20/07:30pm 5.4 3.8 2.4 81 1.3 CALM 0 0 0 0 1028.5 1029.4 0.0
20/07:00pm 7.3 4.7 3.2 75 1.8 SE 6 6 3 3 1028.1 1029.1 0.0
20/06:30pm 7.9 5.1 3.0 71 2.2 SE 7 9 4 5 1028.0 1029.0 0.0
20/06:00pm 9.1 6.9 3.5 68 2.5 SE 4 7 2 4 1027.9 1028.9 0.0
20/05:30pm 9.5 6.7 3.3 65 2.8 SSE 7 11 4 6 1027.8 1028.8 0.0
20/05:00pm 9.5 6.2 4.3 70 2.4 S 11 13 6 7 1027.8 1028.8 0.0
20/04:30pm 10.4 7.0 3.9 64 3.0 SSE 11 15 6 8 1027.6 1028.6 0.0
20/04:00pm 10.8 7.0 3.8 62 3.2 SE 13 15 7 8 1027.5 1028.5 0.0
20/03:30pm 10.9 8.2 3.9 62 3.2 SE 7 9 4 5 1027.4 1028.4 0.0
20/03:00pm 10.9 7.4 3.7 61 3.3 SE 11 13 6 7 1027.3 1028.3 0.0
20/02:30pm 10.8 7.3 3.6 61 3.3 SE 11 15 6 8 1027.2 1028.1 0.0
20/02:00pm 11.3 6.9 5.0 65 3.0 SSE 17 20 9 11 1027.2 1028.1 0.0
20/01:30pm 12.3 8.7 3.0 53 4.2 E 11 15 6 8 1027.3 1028.3 0.0
20/01:00pm 12.3 7.9 5.0 61 3.5 ESE 17 24 9 13 1027.5 1028.5 0.0
20/12:30pm 11.1 6.2 4.3 63 3.2 SE 19 26 10 14 1027.8 1028.8 0.0
20/12:00pm 11.0 6.2 4.5 64 3.0 SSE 19 24 10 13 1028.1 1029.1 0.0
20/11:30am 11.4 6.3 4.2 61 3.4 ESE 20 26 11 14 1028.5 1029.4 0.0
20/11:00am 9.9 5.4 4.3 68 2.6 SE 17 24 9 13 1029.0 1030.0 0.0
20/10:48am 10.2 6.3 5.2 71 2.4 ESE 15 20 8 11 1029.0 1030.0 0.0
20/10:30am 10.3 6.2 6.1 75 2.0 ESE 17 24 9 13 1029.0 1030.0 0.0
20/10:00am 9.2 6.3 6.6 84 1.2 SE 11 15 6 8 1029.2 1030.2 0.0
20/09:42am 9.2 5.3 7.3 88 0.9 SE 17 20 9 11 1028.9 1029.9 0.0
20/09:30am 8.6 6.3 7.5 93 0.5 ESE 9 15 5 8 1028.8 1029.8 0.0
20/09:00am 7.5 4.8 7.4 99 0.0 SE 11 13 6 7 1028.7 1029.7 1.4
20/08:30am 5.1 2.3 5.0 99 0.0 S 9 11 5 6 1028.7 1029.7 1.4
20/08:00am 4.2 1.6 4.1 99 0.0 SSE 7 7 4 4 1028.5 1029.4 1.4
20/07:33am 4.6 1.7 4.5 99 0.0 SE 9 11 5 6 1027.8 1028.8 1.4
20/07:30am 4.8 1.9 4.7 99 0.0 SE 9 13 5 7 1027.8 1028.8 1.4
20/07:18am 5.1 1.5 5.0 99 0.0 SE 13 20 7 11 1027.6 1028.6 1.4
20/07:00am 4.8 1.1 4.7 99 0.0 ESE 13 17 7 9 1027.4 1028.4 1.4
20/06:51am 4.7 1.0 4.6 99 0.0 SE 13 17 7 9 1027.2 1028.1 1.4
20/06:47am 4.6 0.9 4.5 99 0.0 SE 13 17 7 9 1027.2 1028.1 1.4
20/06:30am 4.6 0.9 4.5 99 0.0 SE 13 17 7 9 1027.5 1028.5 1.4
20/06:00am 5.1 1.5 5.0 99 0.0 SE 13 19 7 10 1027.7 1028.7 1.4
20/05:53am 5.1 0.7 5.0 99 0.0 SE 17 22 9 12 1027.6 1028.6 1.4
20/05:51am 5.1 0.4 5.0 99 0.0 SE 19 24 10 13 1027.5 1028.5 1.4
20/05:32am 3.1 -0.9 3.0 99 0.0 SE 13 15 7 8 1027.5 1028.5 1.4
20/05:30am 2.8 -0.8 2.7 99 0.0 SE 11 15 6 8 1027.5 1028.5 1.4
20/05:00am 3.7 0.6 3.6 99 0.0 E 9 9 5 5 1027.6 1028.6 1.4
20/04:38am 3.2 1.7 2.8 97 0.2 CALM 0 0 0 0 1027.8 1028.8 1.4
20/04:30am 3.4 1.9 3.0 97 0.2 CALM 0 0 0 0 1027.9 1028.9 1.4
20/04:00am 4.3 0.8 3.6 95 0.3 S 11 11 6 6 1028.0 1029.0 1.2
20/03:30am 6.0 2.9 5.6 97 0.2 S 11 13 6 7 1028.3 1029.2 1.2
20/03:27am 6.0 2.9 5.6 97 0.2 S 11 13 6 7 1028.1 1029.1 1.2
20/03:00am 6.6 3.3 6.3 98 0.1 SSW 13 15 7 8 1028.0 1029.0 1.2
20/02:56am 6.6 3.3 6.3 98 0.1 SSW 13 15 7 8 1028.0 1029.0 1.2
20/02:30am 6.8 3.5 6.5 98 0.1 WSW 13 15 7 8 1028.0 1029.0 1.2
20/02:08am 7.0 3.8 6.9 99 0.0 WSW 13 17 7 9 1027.9 1028.9 1.0
20/02:05am 7.0 3.8 6.9 99 0.0 WSW 13 15 7 8 1027.9 1028.9 1.0
20/02:00am 7.0 3.8 6.9 99 0.0 WSW 13 17 7 9 1027.8 1028.8 1.0
20/01:44am 7.1 3.9 7.0 99 0.0 SW 13 17 7 9 1027.8 1028.8 0.8
20/01:43am 7.1 3.9 6.8 98 0.1 SW 13 17 7 9 1027.9 1028.9 0.8
20/01:30am 7.2 3.3 6.9 98 0.1 SW 17 20 9 11 1027.8 1028.8 0.8
20/01:13am 7.1 3.6 7.0 99 0.0 SW 15 19 8 10 1027.6 1028.6 0.8
20/01:00am 7.2 3.7 7.1 99 0.0 SW 15 20 8 11 1027.6 1028.6 0.8
20/12:33am 7.3 3.8 7.0 98 0.1 W 15 19 8 10 1027.4 1028.4 0.4
20/12:30am 7.2 3.6 6.9 98 0.1 W 15 19 8 10 1027.4 1028.4 0.4
20/12:19am 7.2 4.4 6.9 98 0.1 WSW 11 15 6 8 1027.4 1028.4 0.4
20/12:00am 7.1 4.3 6.8 98 0.1 WSW 11 13 6 7 1027.3 1028.3 0.4
 
Date/Time
EST
Temp
°C
App
Temp
°C
Dew
Point
°C
Rel
Hum
%
Delta-T
°C
Wind Press
QNH
hPa
Press
MSL
hPa
Rain since
9am
mm
Dir  Spd
km/h
Gust
km/h
Spd
kts
Gust
kts
19/11:40pm 7.1 4.2 6.7 97 0.2 W 11 13 6 7 1027.2 1028.1 0.2
19/11:30pm 7.2 4.3 6.5 95 0.3 WSW 11 13 6 7 1027.2 1028.1 0.2
19/11:00pm 7.6 4.3 6.5 93 0.5 S 13 20 7 11 1027.1 1028.0 0.2
19/10:30pm 7.4 3.6 5.7 89 0.8 SSE 15 22 8 12 1026.8 1027.7 0.2
19/10:00pm 7.7 3.0 6.2 90 0.7 SE 20 26 11 14 1026.7 1027.6 0.2
19/09:30pm 7.6 3.1 6.2 91 0.7 SE 19 28 10 15 1026.7 1027.6 0.2
19/09:00pm 7.2 3.1 6.1 93 0.5 SSE 17 22 9 12 1026.6 1027.5 0.2
19/08:32pm 6.7 2.1 5.5 92 0.6 SSE 19 26 10 14 1026.6 1027.5 0.2
19/08:30pm 6.7 2.1 5.5 92 0.6 SSE 19 24 10 13 1026.6 1027.5 0.2
19/08:00pm 6.3 1.5 4.8 90 0.7 SSE 19 20 10 11 1026.4 1027.4 0.2
19/07:30pm 6.7 0.6 5.0 89 0.8 SSE 26 33 14 18 1026.4 1027.4 0.2
19/07:00pm 6.2 1.2 4.7 90 0.7 SSE 20 24 11 13 1026.3 1027.3 0.2
19/06:30pm 7.0 1.7 4.8 86 1.0 S 22 28 12 15 1026.3 1027.3 0.2
19/06:00pm 7.3 2.0 5.1 86 1.0 S 22 26 12 14 1026.2 1027.2 0.2
19/05:30pm 7.6 1.9 5.1 84 1.2 S 24 28 13 15 1025.7 1026.6 0.2
19/05:00pm 8.2 1.8 5.1 81 1.4 S 28 35 15 19 1025.4 1026.3 0.2
19/04:30pm 9.2 2.4 5.2 76 1.9 S 30 39 16 21 1025.1 1026.0 0.2
19/04:00pm 9.7 2.8 4.5 70 2.4 S 30 35 16 19 1025.1 1026.0 0.2
19/03:30pm 10.1 2.6 4.7 69 2.5 S 33 43 18 23 1025.2 1026.1 0.2
19/03:00pm 10.3 4.0 5.7 73 2.2 S 28 37 15 20 1025.0 1025.9 0.2
19/02:30pm 9.6 2.7 4.6 71 2.3 S 30 43 16 23 1024.7 1025.7 0.2
19/02:00pm 10.1 2.4 5.5 73 2.2 SSE 35 46 19 25 1024.9 1025.8 0.2
19/01:42pm 9.1 2.3 5.3 77 1.8 S 30 48 16 26 1024.5 1025.4 0.2
19/01:30pm 11.1 5.0 4.8 65 3.0 S 26 33 14 18 1024.3 1025.2 0.2
19/01:00pm 9.6 2.3 7.0 84 1.3 S 35 44 19 24 1024.5 1025.4 0.2
19/12:30pm 11.2 3.5 5.3 67 2.8 S 35 43 19 23 1024.2 1025.1 0.0
19/12:00pm 10.2 3.8 5.0 70 2.4 SSW 28 35 15 19 1024.6 1025.6 0.0
19/11:30am 9.1 2.7 5.3 77 1.8 SSW 28 35 15 19 1025.1 1026.0 0.0
19/11:00am 8.3 1.5 5.1 80 1.5 SSW 30 39 16 21 1025.5 1026.4 0.0
19/10:30am 8.8 2.6 4.2 73 2.1 SSW 26 33 14 18 1025.2 1026.1 0.0
19/10:00am 8.2 2.2 3.5 72 2.1 SSW 24 32 13 17 1025.2 1026.1 0.0
19/09:30am 7.4 1.8 3.3 75 1.8 SSW 22 28 12 15 1024.7 1025.7 0.0
19/09:00am 7.0 1.3 2.9 75 1.8 SSW 22 28 12 15 1024.5 1025.4 0.2
19/08:30am 6.3 1.0 2.8 78 1.5 S 20 26 11 14 1023.9 1024.8 0.2
19/08:00am 4.8 2.8 2.2 83 1.1 WSW 2 7 1 4 1023.6 1024.5 0.2
19/07:30am 4.4 1.4 1.9 84 1.0 WSW 7 11 4 6 1023.5 1024.4 0.2
19/07:00am 3.5 1.7 1.4 86 0.8 CALM 0 0 0 0 1023.4 1024.3 0.2
19/06:30am 2.7 -0.4 1.2 90 0.6 NNW 7 7 4 4 1022.7 1023.6 0.2
19/06:00am 2.8 1.0 1.2 89 0.6 CALM 0 6 0 3 1022.4 1023.3 0.2
19/05:30am 3.0 -0.2 0.7 85 0.9 W 7 9 4 5 1022.1 1023.0 0.2
19/05:00am 2.8 -1.6 0.2 83 1.0 WNW 13 15 7 8 1022.0 1022.8 0.2
19/04:30am 3.5 0.3 0.6 81 1.2 SW 7 9 4 5 1022.0 1022.8 0.2
19/04:00am 3.2 -0.7 0.9 85 0.9 SW 11 13 6 7 1022.0 1022.8 0.2
19/03:30am 3.5 -0.8 0.9 83 1.0 SW 13 17 7 9 1021.9 1022.7 0.2
19/03:00am 1.5 -2.5 0.5 93 0.4 SSW 11 15 6 8 1022.2 1023.1 0.2
19/02:30am 1.1 -3.1 -1.0 86 0.8 SW 11 13 6 7 1021.9 1022.7 0.2
19/02:00am 0.2 -3.1 -1.4 89 0.6 SW 6 7 3 4 1021.8 1022.6 0.2
19/01:30am 0.6 -2.3 -1.0 89 0.6 SW 4 9 2 5 1021.8 1022.6 0.2
19/01:00am 1.4 -2.0 -0.5 87 0.7 SSW 7 11 4 6 1021.6 1022.4 0.2
19/12:30am 2.4 -2.1 -0.2 83 1.0 SW 13 17 7 9 1021.6 1022.4 0.2
19/12:00am 3.2 -1.6 0.1 80 1.2 SW 15 17 8 9 1021.8 1022.6 0.2
 
Date/Time
EST
Temp
°C
App
Temp
°C
Dew
Point
°C
Rel
Hum
%
Delta-T
°C
Wind Press
QNH
hPa
Press
MSL
hPa
Rain since
9am
mm
Dir  Spd
km/h
Gust
km/h
Spd
kts
Gust
kts
18/11:30pm 4.7 -0.1 0.5 74 1.7 WSW 15 17 8 9 1021.8 1022.6 0.2
18/11:00pm 5.8 0.8 1.2 72 1.9 SW 17 28 9 15 1022.1 1023.0 0.2
18/10:30pm 5.8 0.4 1.0 71 2.0 SW 19 26 10 14 1022.2 1023.1 0.2
18/10:00pm 5.8 0.2 1.0 71 2.0 SW 20 28 11 15 1022.0 1022.8 0.2
18/09:30pm 5.8 -0.3 0.6 69 2.1 SW 22 32 12 17 1021.8 1022.6 0.2
18/09:00pm 5.8 -0.7 0.6 69 2.1 SW 24 28 13 15 1021.8 1022.6 0.2
18/08:30pm 5.5 -1.3 0.5 70 2.0 SW 26 32 14 17 1021.8 1022.6 0.2
18/08:00pm 5.9 -1.6 1.2 72 1.9 SW 30 37 16 20 1021.8 1022.6 0.2
18/07:30pm 6.6 -0.3 2.5 75 1.8 SW 28 37 15 20 1021.3 1022.2 0.2
18/07:00pm 6.2 1.7 4.4 88 0.8 WSW 17 22 9 12 1020.8 1021.7 0.2
18/06:30pm 7.1 2.3 4.9 86 1.0 SW 19 24 10 13 1020.7 1021.6 0.2
18/06:00pm 7.6 2.8 5.4 86 1.0 WSW 20 28 11 15 1020.2 1021.0 0.2
18/05:30pm 7.6 3.4 5.6 87 0.9 WSW 17 24 9 13 1020.0 1020.8 0.2
18/05:00pm 8.0 3.1 5.3 83 1.3 W 20 28 11 15 1019.4 1020.3 0.0
18/04:30pm 8.8 3.8 4.8 76 1.8 WSW 20 26 11 14 1019.3 1020.1 0.0
18/04:00pm 9.0 3.7 4.8 75 1.9 WSW 22 30 12 16 1019.3 1020.1 0.0
18/03:30pm 10.6 6.9 4.3 65 2.9 WSW 13 20 7 11 1018.9 1019.7 0.0
18/03:00pm 9.5 4.6 4.9 73 2.1 SW 20 30 11 16 1018.9 1019.7 0.0
18/02:30pm 10.8 4.4 3.4 60 3.4 SW 26 39 14 21 1018.7 1019.5 0.0
18/02:00pm 11.5 5.5 3.3 57 3.7 SW 24 30 13 16 1018.4 1019.2 0.0
18/01:30pm 11.9 5.8 2.9 54 4.1 SW 24 33 13 18 1018.1 1019.0 0.0
18/01:00pm 11.9 4.8 3.4 56 3.9 S 30 39 16 21 1018.0 1018.9 0.0
18/12:30pm 11.9 6.0 3.9 58 3.7 SW 24 33 13 18 1018.1 1019.0 0.0
18/12:00pm 11.4 4.8 4.2 61 3.3 S 28 37 15 20 1018.4 1019.2 0.0
18/11:30am 10.9 3.9 2.2 55 3.9 SSW 28 35 15 19 1019.0 1019.8 0.0
18/11:00am 10.4 5.5 3.9 64 3.0 SW 19 26 10 14 1018.9 1019.7 0.0

Latest Capital City Observations: Canberra | Sydney | Melbourne | Brisbane | Adelaide | Perth | Hobart | Darwin

Other Formats:

Comma delimited format used in spreadsheet applications
http://www.bom.gov.au/fwo/IDN60903/IDN60903.95716.axf

JavaScript Object Notation format (JSON) in row-major order
http://www.bom.gov.au/fwo/IDN60903/IDN60903.95716.json